createdAt,value
2023-02-26T00:02:59.303Z,99.77
2023-02-26T00:08:01.111Z,99.82
2023-02-26T00:13:07.220Z,100.00
2023-02-26T00:18:15.826Z,99.92
2023-02-26T00:23:18.637Z,99.90
2023-02-26T00:28:20.735Z,100.00
2023-02-26T00:33:22.800Z,99.90
2023-02-26T00:38:25.037Z,99.59
2023-02-26T00:43:27.061Z,99.53
2023-02-26T00:48:47.580Z,99.32
2023-02-26T00:54:01.721Z,99.37
2023-02-26T00:59:04.438Z,99.57
2023-02-26T01:04:06.499Z,99.43
2023-02-26T01:09:08.278Z,99.89
2023-02-26T01:14:10.600Z,99.80
2023-02-26T01:19:25.594Z,99.61
2023-02-26T01:24:30.853Z,99.52
2023-02-26T01:29:33.768Z,99.50
2023-02-26T01:34:55.121Z,99.71
2023-02-26T01:40:06.259Z,99.48
2023-02-26T01:45:16.516Z,99.54
2023-02-26T01:50:21.630Z,99.42
2023-02-26T01:55:26.794Z,99.55
2023-02-26T02:00:31.302Z,98.88
2023-02-26T02:05:56.824Z,99.46
2023-02-26T02:10:58.579Z,99.95
2023-02-26T02:16:11.763Z,99.97
2023-02-26T02:21:47.584Z,99.79
2023-02-26T02:26:52.203Z,99.75
2023-02-26T02:32:30.912Z,99.97
2023-02-26T02:37:40.054Z,100.00
2023-02-26T02:42:47.580Z,100.00
2023-02-26T02:47:57.917Z,100.00
2023-02-26T02:53:11.058Z,100.00
2023-02-26T02:58:21.270Z,99.18
2023-02-26T03:03:41.001Z,97.66
2023-02-26T03:08:44.104Z,95.47
2023-02-26T03:13:47.362Z,95.59
2023-02-26T03:19:09.235Z,95.41
2023-02-26T03:24:22.107Z,95.26
2023-02-26T03:29:24.558Z,94.62
2023-02-26T03:34:41.379Z,93.84
2023-02-26T03:39:54.305Z,93.99
2023-02-26T03:45:04.908Z,93.52
2023-02-26T03:50:15.703Z,93.51
2023-02-26T03:55:30.441Z,94.13
2023-02-26T04:00:59.032Z,94.15
2023-02-26T04:06:02.557Z,94.33
2023-02-26T04:11:10.176Z,91.59
2023-02-26T04:16:13.404Z,90.79
2023-02-26T04:21:20.290Z,91.31
2023-02-26T04:26:22.685Z,91.82
2023-02-26T04:31:24.912Z,92.59
2023-02-26T04:36:27.196Z,92.95
2023-02-26T04:41:29.153Z,92.79
2023-02-26T04:46:32.071Z,93.57
2023-02-26T04:51:33.798Z,94.37
2023-02-26T04:56:35.544Z,93.66
2023-02-26T05:06:12.869Z,94.56
2023-02-26T05:11:14.616Z,92.14
2023-02-26T05:16:16.347Z,91.64
2023-02-26T05:21:18.083Z,92.61
2023-02-26T05:26:20.049Z,92.57
2023-02-26T05:31:21.977Z,93.86
2023-02-26T05:36:24.165Z,93.48
2023-02-26T05:41:26.135Z,92.94
2023-02-26T05:46:28.422Z,94.24
2023-02-26T05:51:32.553Z,94.21
2023-02-26T05:56:34.256Z,94.54
2023-02-26T06:01:37.511Z,93.96
2023-02-26T06:06:39.255Z,93.88
2023-02-26T06:11:41.021Z,93.81
2023-02-26T06:16:42.765Z,94.37
2023-02-26T06:21:44.506Z,94.85
2023-02-26T06:26:46.198Z,94.78
2023-02-26T06:31:48.331Z,95.29
2023-02-26T06:36:50.101Z,95.09
2023-02-26T06:41:52.175Z,94.45
2023-02-26T06:46:54.152Z,93.82
2023-02-26T06:51:55.824Z,93.65
2023-02-26T06:56:57.865Z,93.30
2023-02-26T07:01:59.572Z,93.64
2023-02-26T07:07:01.282Z,91.91
2023-02-26T07:12:03.552Z,91.93
2023-02-26T07:17:05.383Z,92.16
2023-02-26T07:22:07.080Z,91.60
2023-02-26T07:27:09.603Z,92.16
2023-02-26T07:32:11.785Z,90.96
2023-02-26T07:37:13.845Z,89.93
2023-02-26T07:42:15.588Z,90.77
2023-02-26T07:47:18.007Z,89.91
2023-02-26T07:57:50.908Z,88.66
2023-02-26T08:02:52.727Z,88.03
2023-02-26T08:07:54.417Z,86.99
2023-02-26T08:12:56.089Z,87.41
2023-02-26T08:17:58.217Z,87.62
2023-02-26T08:22:59.834Z,84.01
2023-02-26T08:28:03.235Z,81.76
2023-02-26T08:33:05.057Z,82.83
2023-02-26T08:38:06.739Z,83.01
2023-02-26T08:43:08.393Z,81.87
2023-02-26T08:48:10.974Z,81.43
2023-02-26T08:53:12.825Z,79.94
2023-02-26T08:58:14.618Z,78.38
2023-02-26T09:03:16.441Z,78.30
2023-02-26T09:08:20.581Z,77.33
2023-02-26T09:13:22.200Z,68.07
2023-02-26T09:18:24.292Z,68.30
2023-02-26T09:23:26.130Z,69.83
2023-02-26T09:28:27.903Z,63.16
2023-02-26T09:33:29.705Z,62.34
2023-02-26T09:38:31.451Z,63.75
2023-02-26T09:43:52.123Z,64.50
2023-02-26T09:49:03.681Z,64.75
2023-02-26T09:54:17.036Z,66.37
2023-02-26T09:59:19.227Z,67.19
2023-02-26T10:04:43.970Z,68.07
2023-02-26T10:09:57.047Z,67.91
2023-02-26T10:15:20.934Z,69.47
2023-02-26T10:20:55.440Z,70.55
2023-02-26T10:26:19.539Z,73.72
2023-02-26T10:31:28.317Z,75.32
2023-02-26T10:36:59.391Z,75.81
2023-02-26T10:42:10.486Z,73.30
2023-02-26T10:47:34.867Z,72.99
2023-02-26T10:52:36.792Z,75.20
2023-02-26T10:57:44.143Z,75.76
2023-02-26T11:02:48.854Z,76.58
2023-02-26T11:07:55.925Z,75.92
2023-02-26T11:12:58.796Z,76.56
2023-02-26T11:18:01.852Z,76.07
2023-02-26T11:23:06.988Z,74.21
2023-02-26T11:28:30.204Z,72.94
2023-02-26T11:33:39.151Z,69.94
2023-02-26T11:38:44.367Z,69.02
2023-02-26T12:02:40.251Z,63.57
2023-02-26T12:07:42.109Z,63.67
2023-02-26T12:13:18.987Z,63.21
2023-02-26T12:18:59.422Z,63.83
2023-02-26T12:24:29.822Z,64.86
2023-02-26T12:30:13.920Z,66.64
2023-02-26T12:35:52.595Z,67.55
2023-02-26T12:41:42.642Z,68.87
2023-02-26T12:46:54.887Z,71.07
2023-02-26T12:52:30.793Z,72.90
2023-02-26T12:58:10.495Z,74.74
2023-02-26T13:03:49.232Z,76.70
2023-02-26T13:09:06.259Z,77.40
2023-02-26T13:14:23.223Z,77.80
2023-02-26T13:19:51.347Z,79.36
2023-02-26T13:25:00.267Z,77.32
2023-02-26T13:30:27.388Z,76.58
2023-02-26T13:35:37.560Z,76.09
2023-02-26T13:40:48.138Z,76.21
2023-02-26T13:46:14.461Z,77.74
2023-02-26T13:51:33.837Z,76.09
2023-02-26T13:56:35.799Z,76.39
2023-02-26T14:01:53.675Z,76.64
2023-02-26T14:07:00.101Z,75.92
2023-02-26T14:12:15.785Z,74.75
2023-02-26T14:17:18.683Z,73.11
2023-02-26T14:22:35.082Z,74.42
2023-02-26T14:27:39.783Z,74.97
2023-02-26T14:32:50.298Z,75.20
2023-02-26T14:38:07.919Z,76.28
2023-02-26T14:43:21.780Z,76.10
2023-02-26T14:48:30.201Z,75.23
2023-02-26T14:53:43.905Z,74.70
2023-02-26T14:58:54.813Z,74.73
2023-02-26T15:04:05.812Z,75.02
2023-02-26T15:09:27.131Z,75.23
2023-02-26T15:14:35.894Z,75.15
2023-02-26T15:20:09.872Z,74.22
2023-02-26T15:25:36.204Z,73.88
2023-02-26T15:30:38.375Z,73.05
2023-02-26T15:35:43.816Z,72.91
2023-02-26T15:40:46.139Z,73.44
2023-02-26T15:45:50.028Z,73.36
2023-02-26T15:50:56.110Z,73.29
2023-02-26T15:56:00.297Z,73.37
2023-02-26T16:01:03.960Z,72.69
2023-02-26T16:06:11.167Z,73.42
2023-02-26T16:11:15.598Z,74.51
2023-02-26T16:16:40.911Z,73.85
2023-02-26T16:21:43.879Z,74.13
2023-02-26T16:26:51.871Z,74.02
2023-02-26T16:31:56.133Z,74.47
2023-02-26T16:36:58.574Z,73.57
2023-02-26T16:42:37.866Z,73.81
2023-02-26T16:47:40.353Z,73.15
2023-02-26T16:52:42.111Z,73.25
2023-02-26T16:57:47.773Z,73.37
2023-02-26T17:02:50.040Z,74.02
2023-02-26T17:08:05.455Z,74.18
2023-02-26T17:13:26.560Z,73.64
2023-02-26T17:18:30.678Z,74.34
2023-02-26T17:23:37.195Z,74.71
2023-02-26T17:28:42.691Z,74.54
2023-02-26T17:33:45.232Z,74.98
2023-02-26T17:38:48.580Z,75.15
2023-02-26T17:43:50.348Z,75.52
2023-02-26T17:48:52.012Z,75.06
2023-02-26T17:53:56.100Z,74.61
2023-02-26T17:58:59.397Z,75.05
2023-02-26T18:04:01.964Z,74.89
2023-02-26T18:09:06.018Z,74.52
2023-02-26T18:14:09.489Z,74.60
2023-02-26T18:19:14.004Z,75.29
2023-02-26T18:24:16.790Z,75.51
2023-02-26T18:29:19.041Z,75.67
2023-02-26T18:34:20.712Z,75.86
2023-02-26T18:39:25.288Z,75.48
2023-02-26T18:44:28.765Z,75.55
2023-02-26T18:49:30.599Z,76.20
2023-02-26T18:54:32.310Z,75.79
2023-02-26T18:59:34.832Z,75.12
2023-02-26T19:04:36.913Z,74.62
2023-02-26T19:09:38.586Z,74.55
2023-02-26T19:14:40.257Z,75.29
2023-02-26T19:19:42.547Z,75.62
2023-02-26T19:24:44.463Z,76.13
2023-02-26T19:29:46.622Z,76.50
2023-02-26T19:34:48.280Z,76.67
2023-02-26T19:39:50.099Z,77.13
2023-02-26T19:44:52.049Z,77.73
2023-02-26T19:49:54.031Z,77.77
2023-02-26T19:54:55.762Z,76.19
2023-02-26T19:59:59.801Z,77.13
2023-02-26T20:05:01.952Z,78.53
2023-02-26T20:10:04.288Z,79.27
2023-02-26T20:15:08.256Z,79.56
2023-02-26T20:20:12.091Z,79.69
2023-02-26T20:25:15.000Z,79.65
2023-02-26T20:30:17.023Z,79.54
2023-02-26T20:35:19.278Z,79.38
2023-02-26T20:40:21.177Z,80.07
2023-02-26T20:45:22.954Z,80.75
2023-02-26T20:50:25.455Z,81.08
2023-02-26T20:55:27.348Z,81.22
2023-02-26T21:00:29.455Z,81.39
2023-02-26T21:05:31.336Z,81.76
2023-02-26T21:10:33.274Z,81.56
2023-02-26T21:15:35.695Z,81.58
2023-02-26T21:20:37.424Z,81.57
2023-02-26T21:25:40.101Z,81.35
2023-02-26T21:30:41.852Z,80.77
2023-02-26T21:35:43.571Z,80.05
2023-02-26T21:40:45.677Z,79.77
2023-02-26T21:45:50.400Z,79.29
2023-02-26T21:50:52.440Z,78.99
2023-02-26T21:55:54.645Z,77.64
2023-02-26T22:00:59.372Z,77.45
2023-02-26T22:06:01.131Z,77.10
2023-02-26T22:11:02.855Z,76.28
2023-02-26T22:16:04.809Z,76.48
2023-02-26T22:21:06.989Z,77.07
2023-02-26T22:26:08.739Z,76.83
2023-02-26T22:31:10.547Z,77.14
2023-02-26T22:36:12.296Z,77.39
2023-02-26T22:41:14.127Z,76.87
2023-02-26T22:46:17.212Z,76.52
2023-02-26T22:51:18.972Z,76.49
2023-02-26T22:56:20.626Z,76.48
2023-02-26T23:01:22.646Z,76.72
2023-02-26T23:06:24.348Z,76.60
2023-02-26T23:11:26.263Z,76.04
2023-02-26T23:16:28.078Z,75.95
2023-02-26T23:21:30.928Z,76.04
2023-02-26T23:26:33.396Z,76.05
2023-02-26T23:31:35.209Z,76.21
2023-02-26T23:36:37.298Z,76.51
2023-02-26T23:41:39.531Z,76.31
2023-02-26T23:46:41.296Z,76.26
2023-02-26T23:51:44.596Z,76.35
2023-02-26T23:56:47.398Z,76.60
